createdAt,value
2022-08-14T00:00:45.122Z,65.50
2022-08-14T00:03:20.550Z,65.20
2022-08-14T00:06:00.174Z,65.00
2022-08-14T00:08:43.746Z,66.60
2022-08-14T00:11:15.581Z,66.50
2022-08-14T00:13:52.783Z,66.20
2022-08-14T00:16:40.992Z,66.60
2022-08-14T00:19:19.047Z,67.50
2022-08-14T00:21:49.984Z,67.20
2022-08-14T00:24:28.668Z,67.70
2022-08-14T00:27:02.254Z,66.40
2022-08-14T00:29:33.148Z,68.00
2022-08-14T00:32:56.319Z,67.30
2022-08-14T00:35:01.276Z,67.80
2022-08-14T00:37:33.287Z,68.80
2022-08-14T00:40:02.737Z,69.10
2022-08-14T00:42:55.966Z,70.20
2022-08-14T00:45:25.280Z,70.60
2022-08-14T00:47:53.898Z,70.60
2022-08-14T00:50:25.944Z,72.00
2022-08-14T00:52:56.166Z,72.30
2022-08-14T00:55:25.766Z,72.10
2022-08-14T00:58:10.947Z,72.10
2022-08-14T01:00:47.542Z,73.00
2022-08-14T01:03:27.877Z,73.30
2022-08-14T01:06:00.615Z,72.90
2022-08-14T01:08:52.000Z,72.60
2022-08-14T01:11:21.338Z,72.20
2022-08-14T01:13:55.986Z,71.60
2022-08-14T01:16:31.461Z,72.20
2022-08-14T01:19:19.777Z,73.60
2022-08-14T01:21:53.351Z,73.90
2022-08-14T01:24:24.843Z,74.60
2022-08-14T01:27:00.756Z,75.90
2022-08-14T01:29:58.715Z,75.40
2022-08-14T01:32:22.952Z,73.80
2022-08-14T01:35:20.998Z,74.00
2022-08-14T01:37:46.843Z,75.20
2022-08-14T01:40:25.379Z,75.10
2022-08-14T01:43:00.148Z,75.10
2022-08-14T01:45:40.605Z,74.90
2022-08-14T01:48:13.584Z,74.20
2022-08-14T01:50:44.264Z,73.10
2022-08-14T01:53:15.429Z,74.90
2022-08-14T01:55:45.224Z,75.40
2022-08-14T01:58:19.596Z,75.50
2022-08-14T02:00:55.018Z,75.30
2022-08-14T02:03:29.598Z,74.70
2022-08-14T02:06:04.294Z,75.30
2022-08-14T02:08:53.125Z,76.00
2022-08-14T02:11:25.344Z,75.80
2022-08-14T02:13:58.795Z,75.50
2022-08-14T02:16:29.967Z,76.60
2022-08-14T02:19:01.039Z,75.20
2022-08-14T02:21:39.538Z,74.10
2022-08-14T02:24:39.131Z,73.30
2022-08-14T02:28:25.440Z,73.30
2022-08-14T02:30:00.684Z,74.30
2022-08-14T02:32:37.056Z,74.10
2022-08-14T02:35:18.723Z,74.20
2022-08-14T02:37:49.585Z,74.10
2022-08-14T02:40:21.043Z,72.40
2022-08-14T02:43:02.737Z,74.80
2022-08-14T02:45:38.811Z,73.90
2022-08-14T02:49:05.452Z,74.60
2022-08-14T02:51:03.240Z,75.40
2022-08-14T02:53:33.241Z,77.20
2022-08-14T02:56:10.158Z,77.90
2022-08-14T02:58:55.741Z,78.40
2022-08-14T03:01:31.510Z,79.30
2022-08-14T03:04:13.379Z,78.70
2022-08-14T03:06:57.455Z,78.80
2022-08-14T03:10:24.594Z,77.70
2022-08-14T03:12:30.954Z,77.70
2022-08-14T03:15:16.311Z,76.90
2022-08-14T03:17:56.845Z,77.90
2022-08-14T03:20:29.133Z,78.60
2022-08-14T03:23:03.327Z,77.10
2022-08-14T03:25:37.416Z,76.60
2022-08-14T03:28:14.443Z,77.50
2022-08-14T03:30:59.933Z,78.30
2022-08-14T03:33:38.058Z,78.50
2022-08-14T03:37:38.386Z,76.70
2022-08-14T03:39:12.450Z,76.80
2022-08-14T03:41:47.900Z,77.20
2022-08-14T03:45:19.528Z,78.00
2022-08-14T03:47:08.055Z,78.50
2022-08-14T03:49:42.310Z,77.30
2022-08-14T03:52:17.961Z,77.90
2022-08-14T03:55:03.868Z,78.40
2022-08-14T03:57:32.887Z,77.40
2022-08-14T04:00:40.194Z,77.00
2022-08-14T04:03:06.891Z,76.60
2022-08-14T04:05:43.350Z,76.80
2022-08-14T04:08:23.206Z,78.30
2022-08-14T04:11:02.052Z,78.70
2022-08-14T04:13:33.939Z,79.80
2022-08-14T04:16:06.800Z,79.00
2022-08-14T04:18:42.460Z,80.00
2022-08-14T04:21:11.542Z,80.70
2022-08-14T04:23:40.941Z,82.70
2022-08-14T04:26:14.423Z,82.20
2022-08-14T04:29:08.826Z,81.40
2022-08-14T04:33:10.256Z,84.10
2022-08-14T04:34:27.858Z,82.10
2022-08-14T04:37:21.954Z,82.20
2022-08-14T04:40:10.844Z,81.90
2022-08-14T04:42:56.795Z,81.60
2022-08-14T04:45:29.631Z,82.50
2022-08-14T04:48:39.694Z,83.00
2022-08-14T04:51:05.429Z,83.90
2022-08-14T04:53:36.057Z,86.40
2022-08-14T04:56:31.686Z,88.30
2022-08-14T04:59:05.081Z,90.30
2022-08-14T05:01:47.664Z,91.00
2022-08-14T05:04:21.249Z,90.40
2022-08-14T05:06:53.735Z,88.60
2022-08-14T05:09:24.693Z,89.60
2022-08-14T05:13:11.292Z,88.30
2022-08-14T05:14:54.795Z,89.20
2022-08-14T05:17:32.041Z,90.10
2022-08-14T05:21:56.396Z,90.70
2022-08-14T05:23:03.790Z,91.70
2022-08-14T05:25:34.182Z,92.30
2022-08-14T05:28:14.122Z,92.50
2022-08-14T05:30:46.624Z,92.60
2022-08-14T05:33:16.329Z,92.20
2022-08-14T05:35:46.988Z,92.10
2022-08-14T05:38:30.546Z,92.70
2022-08-14T05:40:59.728Z,93.10
2022-08-14T05:43:40.891Z,91.30
2022-08-14T05:46:12.474Z,90.90
2022-08-14T05:48:45.336Z,92.50
2022-08-14T05:51:15.539Z,92.40
2022-08-14T05:54:00.300Z,90.40
2022-08-14T05:56:33.078Z,88.70
2022-08-14T05:59:05.961Z,89.10
2022-08-14T06:01:35.695Z,90.10
2022-08-14T06:04:05.333Z,92.00
2022-08-14T06:06:38.335Z,89.10
2022-08-14T06:09:09.700Z,87.70
2022-08-14T06:11:38.646Z,85.50
2022-08-14T06:14:12.423Z,85.30
2022-08-14T06:16:49.868Z,84.40
2022-08-14T06:19:23.446Z,84.30
2022-08-14T06:21:58.438Z,82.40
2022-08-14T06:24:30.443Z,84.90
2022-08-14T06:27:04.418Z,85.50
2022-08-14T06:29:35.301Z,85.70
2022-08-14T06:32:38.500Z,82.60
2022-08-14T06:35:09.677Z,79.50
2022-08-14T06:37:46.937Z,78.70
2022-08-14T06:40:27.000Z,78.60
2022-08-14T06:42:56.934Z,83.70
2022-08-14T06:45:30.413Z,84.70
2022-08-14T06:47:59.144Z,77.80
2022-08-14T06:50:30.152Z,76.90
2022-08-14T06:53:01.069Z,80.50
2022-08-14T06:55:29.672Z,76.60
2022-08-14T06:57:58.361Z,77.50
2022-08-14T07:00:31.046Z,75.10
2022-08-14T07:03:19.320Z,74.40
2022-08-14T07:05:55.804Z,72.80
2022-08-14T07:08:31.914Z,74.90
2022-08-14T07:11:04.339Z,70.50
2022-08-14T07:13:34.146Z,70.00
2022-08-14T07:16:05.635Z,69.40
2022-08-14T07:18:35.959Z,70.50
2022-08-14T07:21:07.263Z,69.70
2022-08-14T07:23:40.032Z,68.00
2022-08-14T07:26:10.318Z,67.90
2022-08-14T07:28:43.495Z,66.70
2022-08-14T07:31:13.835Z,67.70
2022-08-14T07:33:50.774Z,67.40
2022-08-14T07:36:27.513Z,65.90
2022-08-14T07:39:02.914Z,66.10
2022-08-14T07:41:35.797Z,64.40
2022-08-14T07:44:32.264Z,66.30
2022-08-14T07:46:54.497Z,70.00
2022-08-14T07:49:24.481Z,65.00
2022-08-14T07:51:53.187Z,68.80
2022-08-14T07:54:29.933Z,65.60
2022-08-14T07:57:00.654Z,63.00
2022-08-14T07:59:42.243Z,63.00
2022-08-14T08:02:19.558Z,64.50
2022-08-14T08:04:54.926Z,63.20
2022-08-14T08:07:29.563Z,62.20
2022-08-14T08:10:31.120Z,62.00
2022-08-14T08:13:15.547Z,60.20
2022-08-14T08:15:46.199Z,61.30
2022-08-14T08:18:27.703Z,59.90
2022-08-14T08:21:00.164Z,61.30
2022-08-14T08:23:40.233Z,59.70
2022-08-14T08:26:14.398Z,58.80
2022-08-14T08:28:44.121Z,58.20
2022-08-14T08:31:13.724Z,59.20
2022-08-14T08:33:46.975Z,59.70
2022-08-14T08:36:18.974Z,57.50
2022-08-14T08:39:16.743Z,57.90
2022-08-14T08:41:45.502Z,58.40
2022-08-14T08:44:31.927Z,57.90
2022-08-14T08:47:06.787Z,57.00
2022-08-14T08:49:52.817Z,58.60
2022-08-14T08:52:31.651Z,57.20
2022-08-14T08:55:04.511Z,58.00
2022-08-14T08:57:37.807Z,58.00
2022-08-14T09:00:25.042Z,57.10
2022-08-14T09:02:57.488Z,56.50
2022-08-14T09:05:26.790Z,55.50
2022-08-14T09:07:56.593Z,56.00
2022-08-14T09:10:27.144Z,57.60
2022-08-14T09:12:57.916Z,55.20
2022-08-14T09:15:27.314Z,55.80
2022-08-14T09:18:11.799Z,55.00
2022-08-14T09:20:41.436Z,56.10
2022-08-14T09:23:12.193Z,55.10
2022-08-14T09:25:59.842Z,55.10
2022-08-14T09:28:31.594Z,55.80
2022-08-14T09:31:07.293Z,54.30
2022-08-14T09:33:59.391Z,54.50
2022-08-14T09:36:54.561Z,53.90
2022-08-14T09:39:38.702Z,54.30
2022-08-14T09:42:33.462Z,53.40
2022-08-14T09:45:15.117Z,53.40
2022-08-14T09:47:49.102Z,53.20
2022-08-14T09:50:26.878Z,53.30
2022-08-14T09:52:58.409Z,52.60
2022-08-14T09:55:41.391Z,52.90
2022-08-14T09:58:19.476Z,52.60
2022-08-14T10:00:54.886Z,52.40
2022-08-14T10:03:34.256Z,52.70
2022-08-14T10:06:11.973Z,53.20
2022-08-14T10:08:44.417Z,51.70
2022-08-14T10:11:19.455Z,50.90
2022-08-14T10:13:55.967Z,50.70
2022-08-14T10:16:33.468Z,51.30
2022-08-14T10:19:07.351Z,50.50
2022-08-14T10:21:58.691Z,50.00
2022-08-14T10:24:36.180Z,50.20
2022-08-14T10:27:16.969Z,49.30
2022-08-14T10:29:49.500Z,49.60
2022-08-14T10:32:29.291Z,49.10
2022-08-14T10:35:14.267Z,49.50
2022-08-14T10:37:48.193Z,48.60
2022-08-14T10:40:37.385Z,49.20
2022-08-14T10:43:19.176Z,48.50
2022-08-14T10:46:04.014Z,48.80
2022-08-14T10:49:00.191Z,49.20
2022-08-14T10:51:34.344Z,47.80
2022-08-14T10:54:35.112Z,46.20
2022-08-14T10:56:58.741Z,45.80
2022-08-14T10:59:36.186Z,46.20
2022-08-14T11:02:44.691Z,45.90
2022-08-14T11:05:20.276Z,47.20
2022-08-14T11:07:57.260Z,47.00
2022-08-14T11:10:42.933Z,46.00
2022-08-14T11:13:17.461Z,46.30
2022-08-14T11:15:48.823Z,45.30
2022-08-14T11:18:20.472Z,44.20
2022-08-14T11:21:02.162Z,43.50
2022-08-14T11:23:38.309Z,44.70
2022-08-14T11:26:10.402Z,43.30
2022-08-14T11:28:46.821Z,43.80
2022-08-14T11:31:22.173Z,43.90
2022-08-14T11:33:54.186Z,44.50
2022-08-14T11:36:35.361Z,44.70
2022-08-14T11:39:22.864Z,42.00
2022-08-14T11:42:55.354Z,41.90
2022-08-14T11:44:53.876Z,40.50
2022-08-14T11:47:25.452Z,41.30
2022-08-14T11:49:55.701Z,43.40
2022-08-14T11:52:40.234Z,44.30
2022-08-14T11:55:11.774Z,40.50
2022-08-14T11:57:40.825Z,40.20
2022-08-14T12:00:14.761Z,40.80
2022-08-14T12:03:02.735Z,40.70
2022-08-14T12:05:35.921Z,41.80
2022-08-14T12:08:12.124Z,43.10
2022-08-14T12:10:45.193Z,43.00
2022-08-14T12:13:19.091Z,43.70
2022-08-14T12:16:06.595Z,43.50
2022-08-14T12:18:41.628Z,43.40
2022-08-14T12:21:15.693Z,41.70
2022-08-14T12:24:01.924Z,41.90
2022-08-14T12:26:39.206Z,40.30
2022-08-14T12:29:13.131Z,41.20
2022-08-14T12:31:44.714Z,41.50
2022-08-14T12:34:20.310Z,42.00
2022-08-14T12:36:51.867Z,42.20
2022-08-14T12:39:26.087Z,42.70
2022-08-14T12:42:01.644Z,43.80
2022-08-14T12:44:32.148Z,43.50
2022-08-14T12:47:07.089Z,43.60
2022-08-14T12:49:35.603Z,44.00
2022-08-14T12:52:17.143Z,43.80
2022-08-14T12:55:06.465Z,42.60
2022-08-14T12:57:42.722Z,41.70
2022-08-14T13:00:23.174Z,43.40
2022-08-14T13:02:56.473Z,42.70
2022-08-14T13:05:29.081Z,42.90
2022-08-14T13:07:59.431Z,43.40
2022-08-14T13:10:46.850Z,43.60
2022-08-14T13:13:18.703Z,42.60
2022-08-14T13:15:56.058Z,43.10
2022-08-14T13:18:28.444Z,42.60
2022-08-14T13:21:01.969Z,42.70
2022-08-14T13:23:36.421Z,42.20
2022-08-14T13:26:09.754Z,43.00
2022-08-14T13:29:02.340Z,42.50
2022-08-14T13:31:34.497Z,42.10
2022-08-14T13:34:04.515Z,42.50
2022-08-14T13:36:54.985Z,43.30
2022-08-14T13:39:26.535Z,42.50
2022-08-14T13:42:00.164Z,41.80
2022-08-14T13:44:29.478Z,40.70
2022-08-14T13:46:58.566Z,41.00
2022-08-14T13:49:29.220Z,41.30
2022-08-14T13:51:59.852Z,41.30
2022-08-14T13:54:32.947Z,41.30
2022-08-14T13:57:03.821Z,41.40
2022-08-14T13:59:38.473Z,41.90
2022-08-14T14:02:09.623Z,41.00
2022-08-14T14:04:41.822Z,41.70
2022-08-14T14:07:13.098Z,41.60
2022-08-14T14:09:52.965Z,41.70
2022-08-14T14:12:37.457Z,41.80
2022-08-14T14:15:13.909Z,41.60
2022-08-14T14:17:44.301Z,41.00
2022-08-14T14:20:35.471Z,40.70
2022-08-14T14:23:11.791Z,41.10
2022-08-14T14:25:48.086Z,40.40
2022-08-14T14:28:23.999Z,40.80
2022-08-14T14:30:57.342Z,40.90
2022-08-14T14:33:50.099Z,40.00
2022-08-14T14:36:21.974Z,40.80
2022-08-14T14:38:54.398Z,42.20
2022-08-14T14:41:25.178Z,41.40
2022-08-14T14:43:57.428Z,42.10
2022-08-14T14:46:36.898Z,41.10
2022-08-14T14:49:08.029Z,41.30
2022-08-14T14:51:43.252Z,41.60
2022-08-14T14:54:13.092Z,41.60
2022-08-14T14:56:50.878Z,42.10
2022-08-14T14:59:22.204Z,41.80
2022-08-14T15:01:54.034Z,41.00
2022-08-14T15:04:24.430Z,40.90
2022-08-14T15:06:55.368Z,41.50
2022-08-14T15:09:23.971Z,41.30
2022-08-14T15:11:52.994Z,41.40
2022-08-14T15:14:55.746Z,41.30
2022-08-14T15:17:12.117Z,40.70
2022-08-14T15:19:42.046Z,41.60
2022-08-14T15:22:25.507Z,41.40
2022-08-14T15:24:53.913Z,41.60
2022-08-14T15:27:26.629Z,41.60
2022-08-14T15:29:57.429Z,41.70
2022-08-14T15:32:26.987Z,42.60
2022-08-14T15:34:58.131Z,42.20
2022-08-14T15:37:32.740Z,41.40
2022-08-14T15:40:03.012Z,41.80
2022-08-14T15:42:39.937Z,41.40
2022-08-14T15:45:12.639Z,42.10
2022-08-14T15:47:44.171Z,46.60
2022-08-14T15:50:13.166Z,42.30
2022-08-14T15:52:43.116Z,42.10
2022-08-14T15:55:16.171Z,41.80
2022-08-14T15:58:01.234Z,43.00
2022-08-14T16:00:53.639Z,42.00
2022-08-14T16:03:27.991Z,42.00
2022-08-14T16:06:05.865Z,42.20
2022-08-14T16:08:41.074Z,42.10
2022-08-14T16:11:12.154Z,42.70
2022-08-14T16:13:44.300Z,43.20
2022-08-14T16:16:50.825Z,42.50
2022-08-14T16:19:10.077Z,42.20
2022-08-14T16:22:02.560Z,42.50
2022-08-14T16:24:35.892Z,42.70
2022-08-14T16:27:34.265Z,42.70
2022-08-14T16:30:20.381Z,42.70
2022-08-14T16:32:57.331Z,43.50
2022-08-14T16:35:42.966Z,43.30
2022-08-14T16:38:19.576Z,44.90
2022-08-14T16:41:27.625Z,43.50
2022-08-14T16:44:04.540Z,43.50
2022-08-14T16:46:38.173Z,43.10
2022-08-14T16:49:11.180Z,43.30
2022-08-14T16:51:44.379Z,43.50
2022-08-14T16:54:34.279Z,44.00
2022-08-14T16:57:20.930Z,44.30
2022-08-14T16:59:52.638Z,44.50
2022-08-14T17:02:39.047Z,45.00
2022-08-14T17:05:21.695Z,45.50
2022-08-14T17:08:32.400Z,45.50
2022-08-14T17:11:21.276Z,45.20
2022-08-14T17:14:00.827Z,46.20
2022-08-14T17:16:37.879Z,44.90
2022-08-14T17:19:09.774Z,46.10
2022-08-14T17:21:47.259Z,45.20
2022-08-14T17:24:56.165Z,46.00
2022-08-14T17:27:08.399Z,45.50
2022-08-14T17:29:54.388Z,46.30
2022-08-14T17:32:55.457Z,45.40
2022-08-14T17:35:38.985Z,45.50
2022-08-14T17:38:38.493Z,45.50
2022-08-14T17:41:27.253Z,45.50
2022-08-14T17:44:33.942Z,46.30
2022-08-14T17:47:11.348Z,46.00
2022-08-14T17:49:51.876Z,45.80
2022-08-14T17:52:34.245Z,46.20
2022-08-14T17:55:09.812Z,46.20
2022-08-14T17:57:42.604Z,46.30
2022-08-14T18:00:14.699Z,46.90
2022-08-14T18:02:51.135Z,47.10
2022-08-14T18:05:23.756Z,46.30
2022-08-14T18:08:33.707Z,46.40
2022-08-14T18:11:02.419Z,46.60
2022-08-14T18:13:52.058Z,46.90
2022-08-14T18:16:22.425Z,47.10
2022-08-14T18:18:52.772Z,47.50
2022-08-14T18:21:42.103Z,47.60
2022-08-14T18:24:20.043Z,48.20
2022-08-14T18:27:06.868Z,47.90
2022-08-14T18:29:55.246Z,48.10
2022-08-14T18:32:47.567Z,48.40
2022-08-14T18:35:46.322Z,48.50
2022-08-14T18:38:25.913Z,48.80
2022-08-14T18:40:56.672Z,48.90
2022-08-14T18:43:45.558Z,49.10
2022-08-14T18:47:00.857Z,49.20
2022-08-14T18:49:17.421Z,49.10
2022-08-14T18:51:47.024Z,49.30
2022-08-14T18:54:29.996Z,49.40
2022-08-14T18:57:03.625Z,49.50
2022-08-14T18:59:39.322Z,49.40
2022-08-14T19:02:43.477Z,49.50
2022-08-14T19:05:13.440Z,49.80
2022-08-14T19:07:48.175Z,49.90
2022-08-14T19:10:37.349Z,50.10
2022-08-14T19:13:11.816Z,50.00
2022-08-14T19:15:44.340Z,50.30
2022-08-14T19:18:28.261Z,50.30
2022-08-14T19:20:59.443Z,50.80
2022-08-14T19:23:43.205Z,50.60
2022-08-14T19:26:36.707Z,51.00
2022-08-14T19:29:23.699Z,51.20
2022-08-14T19:31:56.260Z,51.50
2022-08-14T19:34:52.142Z,51.60
2022-08-14T19:37:52.024Z,51.90
2022-08-14T19:40:33.911Z,52.30
2022-08-14T19:43:06.786Z,52.80
2022-08-14T19:45:39.918Z,53.20
2022-08-14T19:48:16.168Z,53.40
2022-08-14T19:50:46.945Z,53.70
2022-08-14T19:53:16.736Z,53.90
2022-08-14T19:55:59.616Z,54.30
2022-08-14T19:58:54.587Z,54.40
2022-08-14T20:01:58.292Z,54.70
2022-08-14T20:04:45.736Z,55.10
2022-08-14T20:07:59.635Z,55.50
2022-08-14T20:11:04.708Z,56.00
2022-08-14T20:13:23.700Z,56.70
2022-08-14T20:15:52.680Z,56.40
2022-08-14T20:18:49.219Z,56.50
2022-08-14T20:21:17.159Z,56.70
2022-08-14T20:23:48.003Z,56.90
2022-08-14T20:26:31.429Z,57.00
2022-08-14T20:29:04.613Z,57.20
2022-08-14T20:31:37.039Z,57.20
2022-08-14T20:34:24.942Z,57.50
2022-08-14T20:37:09.750Z,57.40
2022-08-14T20:39:43.634Z,57.50
2022-08-14T20:42:35.075Z,57.60
2022-08-14T20:45:19.738Z,57.70
2022-08-14T20:47:53.577Z,58.00
2022-08-14T20:50:29.003Z,58.30
2022-08-14T20:53:00.888Z,58.10
2022-08-14T20:55:41.526Z,58.20
2022-08-14T20:58:41.938Z,58.80
2022-08-14T21:01:34.769Z,59.60
2022-08-14T21:04:14.274Z,60.60
2022-08-14T21:07:23.183Z,61.60
2022-08-14T21:10:05.692Z,61.70
2022-08-14T21:12:34.285Z,61.90
2022-08-14T21:15:11.189Z,61.80
2022-08-14T21:17:43.107Z,62.20
2022-08-14T21:20:26.224Z,62.50
2022-08-14T21:23:00.232Z,62.70
2022-08-14T21:25:31.365Z,62.60
2022-08-14T21:28:04.919Z,62.40
2022-08-14T21:30:46.543Z,62.40
2022-08-14T21:33:23.541Z,62.10
2022-08-14T21:35:54.853Z,61.90
2022-08-14T21:38:33.791Z,62.40
2022-08-14T21:41:42.582Z,62.30
2022-08-14T21:44:04.413Z,62.60
2022-08-14T21:46:36.377Z,62.00
2022-08-14T21:49:14.399Z,62.20
2022-08-14T21:51:55.535Z,62.70
2022-08-14T21:54:50.104Z,62.80
2022-08-14T21:57:55.851Z,62.80
2022-08-14T22:00:34.698Z,63.40
2022-08-14T22:03:09.096Z,62.90
2022-08-14T22:05:43.705Z,63.30
2022-08-14T22:08:16.066Z,63.40
2022-08-14T22:10:47.805Z,63.40
2022-08-14T22:13:24.604Z,64.10
2022-08-14T22:15:59.681Z,65.10
2022-08-14T22:18:32.214Z,65.60
2022-08-14T22:21:05.532Z,65.60
2022-08-14T22:23:35.429Z,65.50
2022-08-14T22:26:06.284Z,65.30
2022-08-14T22:28:34.714Z,65.60
2022-08-14T22:31:09.951Z,66.00
2022-08-14T22:33:43.038Z,65.90
2022-08-14T22:36:34.295Z,65.00
2022-08-14T22:39:11.350Z,65.50
2022-08-14T22:41:43.182Z,66.00
2022-08-14T22:44:15.204Z,65.90
2022-08-14T22:46:45.144Z,66.10
2022-08-14T22:49:15.482Z,65.80
2022-08-14T22:52:32.465Z,65.50
2022-08-14T22:54:58.902Z,65.50
2022-08-14T22:57:37.248Z,65.20
2022-08-14T23:00:14.993Z,64.80
2022-08-14T23:02:47.106Z,64.80
2022-08-14T23:05:38.867Z,64.70
2022-08-14T23:08:57.596Z,64.80
2022-08-14T23:11:01.860Z,65.10
2022-08-14T23:13:32.648Z,65.10
2022-08-14T23:16:01.653Z,65.20
2022-08-14T23:18:30.491Z,65.00
2022-08-14T23:20:59.496Z,65.00
2022-08-14T23:23:29.692Z,65.00
2022-08-14T23:26:46.908Z,64.70
2022-08-14T23:28:56.538Z,64.80
2022-08-14T23:31:35.247Z,64.90
2022-08-14T23:34:07.636Z,64.60
2022-08-14T23:36:53.573Z,64.60
2022-08-14T23:39:32.984Z,64.80
2022-08-14T23:42:11.482Z,64.90
2022-08-14T23:44:40.665Z,64.60
2022-08-14T23:47:26.348Z,64.90
2022-08-14T23:50:03.611Z,64.80
2022-08-14T23:52:50.351Z,64.70
2022-08-14T23:55:29.719Z,64.70
2022-08-14T23:57:59.337Z,64.50
